sensor_id;sensor_type;location;lat;lon;timestamp;pressure;altitude;pressure_sealevel;temperature;humidity
59043;BME280;44826;51.596;5.624;2024-02-21T00:01:44;102161.91;;;7.85;100.00
59043;BME280;44826;51.596;5.624;2024-02-21T00:04:10;102160.19;;;7.84;100.00
59043;BME280;44826;51.596;5.624;2024-02-21T00:06:35;102158.47;;;7.85;100.00
59043;BME280;44826;51.596;5.624;2024-02-21T00:09:00;102150.69;;;7.85;100.00
59043;BME280;44826;51.596;5.624;2024-02-21T00:11:26;102160.16;;;7.86;100.00
59043;BME280;44826;51.596;5.624;2024-02-21T00:13:51;102148.09;;;7.85;100.00
59043;BME280;44826;51.596;5.624;2024-02-21T00:16:17;102143.78;;;7.87;100.00
59043;BME280;44826;51.596;5.624;2024-02-21T00:18:43;102147.22;;;7.86;100.00
59043;BME280;44826;51.596;5.624;2024-02-21T00:21:08;102150.69;;;7.86;100.00
59043;BME280;44826;51.596;5.624;2024-02-21T00:23:33;102164.50;;;7.87;100.00
59043;BME280;44826;51.596;5.624;2024-02-21T00:25:59;102160.19;;;7.87;100.00
59043;BME280;44826;51.596;5.624;2024-02-21T00:28:24;102161.06;;;7.88;100.00
59043;BME280;44826;51.596;5.624;2024-02-21T00:30:49;102149.84;;;7.87;100.00
59043;BME280;44826;51.596;5.624;2024-02-21T00:33:16;102145.50;;;7.88;100.00
59043;BME280;44826;51.596;5.624;2024-02-21T00:35:42;102134.28;;;7.89;100.00
59043;BME280;44826;51.596;5.624;2024-02-21T00:38:07;102115.28;;;7.85;100.00
59043;BME280;44826;51.596;5.624;2024-02-21T00:40:33;102117.88;;;7.87;100.00
59043;BME280;44826;51.596;5.624;2024-02-21T00:42:59;102107.50;;;7.84;100.00
59043;BME280;44826;51.596;5.624;2024-02-21T00:45:24;102105.75;;;7.80;100.00
59043;BME280;44826;51.596;5.624;2024-02-21T00:47:49;102099.66;;;7.74;100.00
59043;BME280;44826;51.596;5.624;2024-02-21T00:50:15;102099.63;;;7.71;100.00
59043;BME280;44826;51.596;5.624;2024-02-21T00:52:40;102090.13;;;7.67;100.00
59043;BME280;44826;51.596;5.624;2024-02-21T00:55:06;102088.38;;;7.63;100.00
59043;BME280;44826;51.596;5.624;2024-02-21T00:57:31;102084.00;;;7.60;100.00
59043;BME280;44826;51.596;5.624;2024-02-21T00:59:57;102082.28;;;7.56;100.00
59043;BME280;44826;51.596;5.624;2024-02-21T01:02:22;102081.38;;;7.53;100.00
59043;BME280;44826;51.596;5.624;2024-02-21T01:04:48;102090.00;;;7.52;100.00
59043;BME280;44826;51.596;5.624;2024-02-21T01:07:13;102090.88;;;7.52;100.00
59043;BME280;44826;51.596;5.624;2024-02-21T01:09:38;102087.41;;;7.50;100.00
59043;BME280;44826;51.596;5.624;2024-02-21T01:12:04;102091.75;;;7.50;100.00
59043;BME280;44826;51.596;5.624;2024-02-21T01:14:29;102086.56;;;7.50;100.00
59043;BME280;44826;51.596;5.624;2024-02-21T01:16:54;102080.50;;;7.48;100.00
59043;BME280;44826;51.596;5.624;2024-02-21T01:19:20;102082.22;;;7.47;100.00
59043;BME280;44826;51.596;5.624;2024-02-21T01:21:45;102079.66;;;7.49;100.00
59043;BME280;44826;51.596;5.624;2024-02-21T01:24:10;102084.81;;;7.49;100.00
59043;BME280;44826;51.596;5.624;2024-02-21T01:26:36;102069.28;;;7.49;100.00
59043;BME280;44826;51.596;5.624;2024-02-21T01:29:01;102069.28;;;7.49;100.00
59043;BME280;44826;51.596;5.624;2024-02-21T01:31:26;102069.28;;;7.49;100.00
59043;BME280;44826;51.596;5.624;2024-02-21T01:33:51;102066.69;;;7.50;100.00
59043;BME280;44826;51.596;5.624;2024-02-21T01:36:17;102061.53;;;7.49;100.00
59043;BME280;44826;51.596;5.624;2024-02-21T01:38:42;102051.16;;;7.49;100.00
59043;BME280;44826;51.596;5.624;2024-02-21T01:41:07;102050.31;;;7.50;100.00
59043;BME280;44826;51.596;5.624;2024-02-21T01:43:33;102058.06;;;7.50;100.00
59043;BME280;44826;51.596;5.624;2024-02-21T01:45:58;102045.13;;;7.50;100.00
59043;BME280;44826;51.596;5.624;2024-02-21T01:48:24;102038.22;;;7.49;100.00
59043;BME280;44826;51.596;5.624;2024-02-21T01:50:51;102045.13;;;7.50;100.00
59043;BME280;44826;51.596;5.624;2024-02-21T01:53:20;102036.50;;;7.51;100.00
59043;BME280;44826;51.596;5.624;2024-02-21T01:55:46;102029.59;;;7.51;100.00
59043;BME280;44826;51.596;5.624;2024-02-21T01:58:15;102031.31;;;7.54;100.00
59043;BME280;44826;51.596;5.624;2024-02-21T02:00:42;102026.13;;;7.54;100.00
59043;BME280;44826;51.596;5.624;2024-02-21T02:03:12;102038.22;;;7.55;100.00
59043;BME280;44826;51.596;5.624;2024-02-21T02:05:49;102031.34;;;7.57;100.00
59043;BME280;44826;51.596;5.624;2024-02-21T02:08:15;102027.03;;;7.56;100.00
59043;BME280;44826;51.596;5.624;2024-02-21T02:10:41;102030.50;;;7.56;100.00
59043;BME280;44826;51.596;5.624;2024-02-21T02:13:07;102026.16;;;7.57;100.00
59043;BME280;44826;51.596;5.624;2024-02-21T02:15:42;102027.03;;;7.59;100.00
59043;BME280;44826;51.596;5.624;2024-02-21T02:18:07;102021.00;;;7.60;100.00
59043;BME280;44826;51.596;5.624;2024-02-21T02:20:33;102029.63;;;7.59;100.00
59043;BME280;44826;51.596;5.624;2024-02-21T02:22:59;102015.81;;;7.60;100.00
59043;BME280;44826;51.596;5.624;2024-02-21T02:25:26;102005.47;;;7.62;100.00
59043;BME280;44826;51.596;5.624;2024-02-21T02:27:52;101999.44;;;7.61;100.00
59043;BME280;44826;51.596;5.624;2024-02-21T02:30:18;102005.47;;;7.60;100.00
59043;BME280;44826;51.596;5.624;2024-02-21T02:32:46;102002.03;;;7.61;100.00
59043;BME280;44826;51.596;5.624;2024-02-21T02:35:12;101991.66;;;7.58;100.00
59043;BME280;44826;51.596;5.624;2024-02-21T02:37:37;101992.50;;;7.57;100.00
59043;BME280;44826;51.596;5.624;2024-02-21T02:40:07;101983.03;;;7.57;100.00
59043;BME280;44826;51.596;5.624;2024-02-21T02:42:33;101984.75;;;7.58;100.00
59043;BME280;44826;51.596;5.624;2024-02-21T02:44:58;101980.44;;;7.59;100.00
59043;BME280;44826;51.596;5.624;2024-02-21T02:47:24;101985.59;;;7.59;100.00
59043;BME280;44826;51.596;5.624;2024-02-21T02:49:49;101988.19;;;7.59;100.00
59043;BME280;44826;51.596;5.624;2024-02-21T02:52:16;101988.19;;;7.59;100.00
59043;BME280;44826;51.596;5.624;2024-02-21T02:54:42;101971.81;;;7.58;100.00
59043;BME280;44826;51.596;5.624;2024-02-21T02:57:07;101966.63;;;7.58;100.00
59043;BME280;44826;51.596;5.624;2024-02-21T02:59:33;101960.56;;;7.58;100.00
59043;BME280;44826;51.596;5.624;2024-02-21T03:01:58;101962.28;;;7.59;100.00
59043;BME280;44826;51.596;5.624;2024-02-21T03:04:23;101964.91;;;7.57;100.00
59043;BME280;44826;51.596;5.624;2024-02-21T03:06:49;101968.34;;;7.56;100.00
59043;BME280;44826;51.596;5.624;2024-02-21T03:09:14;101965.75;;;7.58;100.00
59043;BME280;44826;51.596;5.624;2024-02-21T03:11:40;101956.25;;;7.57;100.00
59043;BME280;44826;51.596;5.624;2024-02-21T03:14:08;101956.25;;;7.57;100.00
59043;BME280;44826;51.596;5.624;2024-02-21T03:16:33;101954.50;;;7.56;100.00
59043;BME280;44826;51.596;5.624;2024-02-21T03:18:59;101951.03;;;7.54;100.00
59043;BME280;44826;51.596;5.624;2024-02-21T03:21:24;101953.66;;;7.55;100.00
59043;BME280;44826;51.596;5.624;2024-02-21T03:23:49;101951.91;;;7.56;100.00
59043;BME280;44826;51.596;5.624;2024-02-21T03:26:15;101946.75;;;7.56;100.00
59043;BME280;44826;51.596;5.624;2024-02-21T03:28:42;101938.97;;;7.56;100.00
59043;BME280;44826;51.596;5.624;2024-02-21T03:31:11;101938.13;;;7.57;100.00
59043;BME280;44826;51.596;5.624;2024-02-21T03:33:37;101939.00;;;7.59;100.00
59043;BME280;44826;51.596;5.624;2024-02-21T03:36:02;101928.63;;;7.59;100.00
59043;BME280;44826;51.596;5.624;2024-02-21T03:38:28;101919.13;;;7.58;100.00
59043;BME280;44826;51.596;5.624;2024-02-21T03:40:54;101926.03;;;7.59;100.00
59043;BME280;44826;51.596;5.624;2024-02-21T03:43:19;101920.84;;;7.60;100.00
59043;BME280;44826;51.596;5.624;2024-02-21T03:45:44;101907.91;;;7.59;100.00
59043;BME280;44826;51.596;5.624;2024-02-21T03:48:10;101910.50;;;7.60;100.00
59043;BME280;44826;51.596;5.624;2024-02-21T03:50:35;101913.13;;;7.62;100.00
59043;BME280;44826;51.596;5.624;2024-02-21T03:53:00;101904.47;;;7.60;100.00
59043;BME280;44826;51.596;5.624;2024-02-21T03:55:26;101907.06;;;7.60;100.00
59043;BME280;44826;51.596;5.624;2024-02-21T03:57:51;101901.03;;;7.61;100.00
59043;BME280;44826;51.596;5.624;2024-02-21T04:00:17;101900.13;;;7.60;100.00
59043;BME280;44826;51.596;5.624;2024-02-21T04:02:42;101898.44;;;7.59;100.00
59043;BME280;44826;51.596;5.624;2024-02-21T04:05:08;101887.19;;;7.60;100.00
59043;BME280;44826;51.596;5.624;2024-02-21T04:07:37;101896.69;;;7.60;100.00
59043;BME280;44826;51.596;5.624;2024-02-21T04:10:02;101890.66;;;7.61;100.00
59043;BME280;44826;51.596;5.624;2024-02-21T04:12:28;101896.69;;;7.60;100.00
59043;BME280;44826;51.596;5.624;2024-02-21T04:14:53;101900.13;;;7.60;100.00
59043;BME280;44826;51.596;5.624;2024-02-21T04:17:18;101905.34;;;7.62;100.00
59043;BME280;44826;51.596;5.624;2024-02-21T04:19:44;101903.63;;;7.61;100.00
59043;BME280;44826;51.596;5.624;2024-02-21T04:22:09;101908.81;;;7.64;100.00
59043;BME280;44826;51.596;5.624;2024-02-21T04:24:34;101914.84;;;7.63;100.00
59043;BME280;44826;51.596;5.624;2024-02-21T04:27:00;101906.19;;;7.63;100.00
59043;BME280;44826;51.596;5.624;2024-02-21T04:29:25;101890.66;;;7.63;100.00
59043;BME280;44826;51.596;5.624;2024-02-21T04:31:50;101902.75;;;7.64;100.00
59043;BME280;44826;51.596;5.624;2024-02-21T04:34:16;101892.41;;;7.65;100.00
59043;BME280;44826;51.596;5.624;2024-02-21T04:36:41;101876.00;;;7.63;100.00
59043;BME280;44826;51.596;5.624;2024-02-21T04:39:06;101882.91;;;7.64;100.00
59043;BME280;44826;51.596;5.624;2024-02-21T04:41:31;101880.28;;;7.63;100.00
59043;BME280;44826;51.596;5.624;2024-02-21T04:43:57;101886.34;;;7.62;100.00
59043;BME280;44826;51.596;5.624;2024-02-21T04:46:22;101896.69;;;7.60;100.00
59043;BME280;44826;51.596;5.624;2024-02-21T04:48:47;101891.50;;;7.62;100.00
59043;BME280;44826;51.596;5.624;2024-02-21T04:51:13;101894.97;;;7.62;100.00
59043;BME280;44826;51.596;5.624;2024-02-21T04:53:38;101888.06;;;7.61;100.00
59043;BME280;44826;51.596;5.624;2024-02-21T04:56:04;101882.91;;;7.61;100.00
59043;BME280;44826;51.596;5.624;2024-02-21T04:58:29;101873.38;;;7.62;100.00
59043;BME280;44826;51.596;5.624;2024-02-21T05:00:55;101875.97;;;7.60;100.00
59043;BME280;44826;51.596;5.624;2024-02-21T05:03:20;101882.91;;;7.61;100.00
59043;BME280;44826;51.596;5.624;2024-02-21T05:05:46;101872.53;;;7.59;100.00
59043;BME280;44826;51.596;5.624;2024-02-21T05:08:12;101865.63;;;7.60;100.00
59043;BME280;44826;51.596;5.624;2024-02-21T05:10:37;101863.88;;;7.59;100.00
59043;BME280;44826;51.596;5.624;2024-02-21T05:13:03;101857.00;;;7.59;100.00
59043;BME280;44826;51.596;5.624;2024-02-21T05:15:28;101855.25;;;7.57;100.00
59043;BME280;44826;51.596;5.624;2024-02-21T05:17:53;101854.38;;;7.58;100.00
59043;BME280;44826;51.596;5.624;2024-02-21T05:20:19;101851.81;;;7.58;100.00
59043;BME280;44826;51.596;5.624;2024-02-21T05:22:44;101845.75;;;7.56;100.00
59043;BME280;44826;51.596;5.624;2024-02-21T05:25:09;101844.88;;;7.54;100.00
59043;BME280;44826;51.596;5.624;2024-02-21T05:27:35;101851.78;;;7.52;100.00
59043;BME280;44826;51.596;5.624;2024-02-21T05:30:02;101843.16;;;7.53;100.00
59043;BME280;44826;51.596;5.624;2024-02-21T05:32:27;101828.50;;;7.53;100.00
59043;BME280;44826;51.596;5.624;2024-02-21T05:34:53;101824.19;;;7.51;100.00
59043;BME280;44826;51.596;5.624;2024-02-21T05:37:18;101829.34;;;7.51;100.00
59043;BME280;44826;51.596;5.624;2024-02-21T05:39:43;101815.53;;;7.49;100.00
59043;BME280;44826;51.596;5.624;2024-02-21T05:42:09;101817.25;;;7.48;100.00
59043;BME280;44826;51.596;5.624;2024-02-21T05:44:34;101819.84;;;7.48;100.00
59043;BME280;44826;51.596;5.624;2024-02-21T05:46:59;101811.19;;;7.46;100.00
59043;BME280;44826;51.596;5.624;2024-02-21T05:49:25;101812.03;;;7.45;100.00
59043;BME280;44826;51.596;5.624;2024-02-21T05:51:50;101814.63;;;7.45;100.00
59043;BME280;44826;51.596;5.624;2024-02-21T05:54:15;101806.88;;;7.42;100.00
59043;BME280;44826;51.596;5.624;2024-02-21T05:56:44;101804.31;;;7.42;100.00
59043;BME280;44826;51.596;5.624;2024-02-21T05:59:11;101805.16;;;7.41;100.00
59043;BME280;44826;51.596;5.624;2024-02-21T06:01:36;101798.22;;;7.38;100.00
59043;BME280;44826;51.596;5.624;2024-02-21T06:04:01;101796.53;;;7.39;100.00
59043;BME280;44826;51.596;5.624;2024-02-21T06:06:27;101803.41;;;7.41;100.00
59043;BME280;44826;51.596;5.624;2024-02-21T06:08:52;101798.25;;;7.40;100.00
59043;BME280;44826;51.596;5.624;2024-02-21T06:11:17;101796.50;;;7.40;100.00
59043;BME280;44826;51.596;5.624;2024-02-21T06:13:42;101788.75;;;7.39;100.00
59043;BME280;44826;51.596;5.624;2024-02-21T06:16:08;101781.84;;;7.39;100.00
59043;BME280;44826;51.596;5.624;2024-02-21T06:18:35;101775.78;;;7.40;100.00
59043;BME280;44826;51.596;5.624;2024-02-21T06:21:01;101769.75;;;7.38;100.00
59043;BME280;44826;51.596;5.624;2024-02-21T06:23:26;101772.34;;;7.38;100.00
59043;BME280;44826;51.596;5.624;2024-02-21T06:25:52;101771.47;;;7.36;100.00
59043;BME280;44826;51.596;5.624;2024-02-21T06:28:18;101766.31;;;7.38;100.00
59043;BME280;44826;51.596;5.624;2024-02-21T06:30:43;101768.03;;;7.37;100.00
59043;BME280;44826;51.596;5.624;2024-02-21T06:33:08;101773.19;;;7.37;100.00
59043;BME280;44826;51.596;5.624;2024-02-21T06:35:34;101774.06;;;7.38;100.00
59043;BME280;44826;51.596;5.624;2024-02-21T06:37:59;101768.88;;;7.36;100.00
59043;BME280;44826;51.596;5.624;2024-02-21T06:40:25;101775.78;;;7.37;100.00
59043;BME280;44826;51.596;5.624;2024-02-21T06:42:50;101776.66;;;7.36;100.00
59043;BME280;44826;51.596;5.624;2024-02-21T06:45:16;101780.97;;;7.37;100.00
59043;BME280;44826;51.596;5.624;2024-02-21T06:47:42;101784.41;;;7.36;100.00
59043;BME280;44826;51.596;5.624;2024-02-21T06:50:07;101781.81;;;7.36;100.00
59043;BME280;44826;51.596;5.624;2024-02-21T06:52:34;101784.41;;;7.36;100.00
59043;BME280;44826;51.596;5.624;2024-02-21T06:54:59;101777.50;;;7.38;100.00
59043;BME280;44826;51.596;5.624;2024-02-21T06:57:25;101773.22;;;7.36;100.00
59043;BME280;44826;51.596;5.624;2024-02-21T06:59:50;101782.69;;;7.35;100.00
59043;BME280;44826;51.596;5.624;2024-02-21T07:02:15;101781.81;;;7.36;100.00
59043;BME280;44826;51.596;5.624;2024-02-21T07:04:41;101783.56;;;7.36;100.00
59043;BME280;44826;51.596;5.624;2024-02-21T07:07:06;101774.06;;;7.36;100.00
59043;BME280;44826;51.596;5.624;2024-02-21T07:09:31;101770.59;;;7.37;100.00
59043;BME280;44826;51.596;5.624;2024-02-21T07:11:58;101781.81;;;7.36;100.00
59043;BME280;44826;51.596;5.624;2024-02-21T07:14:23;101767.16;;;7.35;100.00
59043;BME280;44826;51.596;5.624;2024-02-21T07:16:48;101763.69;;;7.36;100.00
59043;BME280;44826;51.596;5.624;2024-02-21T07:19:14;101765.44;;;7.37;100.00
59043;BME280;44826;51.596;5.624;2024-02-21T07:21:39;101763.72;;;7.38;100.00
59043;BME280;44826;51.596;5.624;2024-02-21T07:24:06;101758.53;;;7.39;100.00
59043;BME280;44826;51.596;5.624;2024-02-21T07:26:32;101754.22;;;7.38;100.00
59043;BME280;44826;51.596;5.624;2024-02-21T07:28:58;101756.81;;;7.38;100.00
59043;BME280;44826;51.596;5.624;2024-02-21T07:31:23;101754.22;;;7.38;100.00
59043;BME280;44826;51.596;5.624;2024-02-21T07:33:48;101755.09;;;7.40;100.00
59043;BME280;44826;51.596;5.624;2024-02-21T07:36:15;101746.44;;;7.38;100.00
59043;BME280;44826;51.596;5.624;2024-02-21T07:38:40;101739.56;;;7.40;100.00
59043;BME280;44826;51.596;5.624;2024-02-21T07:41:05;101742.16;;;7.42;100.00
59043;BME280;44826;51.596;5.624;2024-02-21T07:43:31;101736.09;;;7.41;100.00
59043;BME280;44826;51.596;5.624;2024-02-21T07:45:56;101724.03;;;7.43;100.00
59043;BME280;44826;51.596;5.624;2024-02-21T07:48:22;101720.59;;;7.44;100.00
59043;BME280;44826;51.596;5.624;2024-02-21T07:50:51;101718.88;;;7.47;100.00
59043;BME280;44826;51.596;5.624;2024-02-21T07:53:16;101708.50;;;7.47;100.00
59043;BME280;44826;51.596;5.624;2024-02-21T07:55:41;101699.88;;;7.48;100.00
59043;BME280;44826;51.596;5.624;2024-02-21T07:58:07;101698.16;;;7.50;100.00
59043;BME280;44826;51.596;5.624;2024-02-21T08:00:32;101695.53;;;7.53;100.00
59043;BME280;44826;51.596;5.624;2024-02-21T08:02:58;101687.78;;;7.53;100.00
59043;BME280;44826;51.596;5.624;2024-02-21T08:05:23;101680.00;;;7.53;100.00
59043;BME280;44826;51.596;5.624;2024-02-21T08:07:49;101683.47;;;7.53;100.00
59043;BME280;44826;51.596;5.624;2024-02-21T08:10:14;101688.66;;;7.56;100.00
59043;BME280;44826;51.596;5.624;2024-02-21T08:12:40;101694.69;;;7.57;100.00
59043;BME280;44826;51.596;5.624;2024-02-21T08:15:05;101678.28;;;7.58;100.00
59043;BME280;44826;51.596;5.624;2024-02-21T08:17:33;101680.03;;;7.59;100.00
59043;BME280;44826;51.596;5.624;2024-02-21T08:19:59;101682.63;;;7.62;100.00
59043;BME280;44826;51.596;5.624;2024-02-21T08:22:24;101674.00;;;7.63;100.00
59043;BME280;44826;51.596;5.624;2024-02-21T08:24:49;101662.75;;;7.66;100.00
59043;BME280;44826;51.596;5.624;2024-02-21T08:27:15;101674.00;;;7.66;100.00
59043;BME280;44826;51.596;5.624;2024-02-21T08:29:40;101666.22;;;7.66;100.00
59043;BME280;44826;51.596;5.624;2024-02-21T08:32:05;101656.72;;;7.68;100.00
59043;BME280;44826;51.596;5.624;2024-02-21T08:34:31;101651.53;;;7.71;100.00
59043;BME280;44826;51.596;5.624;2024-02-21T08:36:59;101651.53;;;7.71;100.00
59043;BME280;44826;51.596;5.624;2024-02-21T08:39:24;101640.31;;;7.74;100.00
59043;BME280;44826;51.596;5.624;2024-02-21T08:41:49;101648.06;;;7.77;100.00
59043;BME280;44826;51.596;5.624;2024-02-21T08:44:16;101642.03;;;7.78;100.00
59043;BME280;44826;51.596;5.624;2024-02-21T08:46:41;101637.69;;;7.80;100.00
59043;BME280;44826;51.596;5.624;2024-02-21T08:49:06;101630.81;;;7.84;100.00
59043;BME280;44826;51.596;5.624;2024-02-21T08:51:32;101630.78;;;7.87;100.00
59043;BME280;44826;51.596;5.624;2024-02-21T08:53:58;101636.84;;;7.87;100.00
59043;BME280;44826;51.596;5.624;2024-02-21T08:56:23;101622.16;;;7.89;100.00
59043;BME280;44826;51.596;5.624;2024-02-21T08:58:49;101616.09;;;7.89;100.00
59043;BME280;44826;51.596;5.624;2024-02-21T09:01:15;101610.06;;;7.93;100.00
59043;BME280;44826;51.596;5.624;2024-02-21T09:03:40;101605.72;;;7.95;100.00
59043;BME280;44826;51.596;5.624;2024-02-21T09:06:06;101600.53;;;8.00;100.00
59043;BME280;44826;51.596;5.624;2024-02-21T09:08:32;101600.53;;;8.03;100.00
59043;BME280;44826;51.596;5.624;2024-02-21T09:10:57;101597.91;;;8.04;100.00
59043;BME280;44826;51.596;5.624;2024-02-21T09:13:22;101596.19;;;8.07;100.00
59043;BME280;44826;51.596;5.624;2024-02-21T09:15:49;101597.91;;;8.08;100.00
59043;BME280;44826;51.596;5.624;2024-02-21T09:18:15;101596.19;;;8.07;100.00
59043;BME280;44826;51.596;5.624;2024-02-21T09:20:41;101597.94;;;8.06;100.00
59043;BME280;44826;51.596;5.624;2024-02-21T09:23:06;101600.50;;;8.08;100.00
59043;BME280;44826;51.596;5.624;2024-02-21T09:25:32;101597.91;;;8.04;100.00
59043;BME280;44826;51.596;5.624;2024-02-21T09:27:57;101599.69;;;8.02;100.00
59043;BME280;44826;51.596;5.624;2024-02-21T09:30:25;101599.69;;;8.02;100.00
59043;BME280;44826;51.596;5.624;2024-02-21T09:32:51;101599.69;;;8.02;100.00
59043;BME280;44826;51.596;5.624;2024-02-21T09:35:16;101596.19;;;8.03;100.00
59043;BME280;44826;51.596;5.624;2024-02-21T09:37:42;101593.59;;;8.03;100.00
59043;BME280;44826;51.596;5.624;2024-02-21T09:40:07;101588.44;;;8.02;100.00
59043;BME280;44826;51.596;5.624;2024-02-21T09:42:40;101585.00;;;8.00;100.00
59043;BME280;44826;51.596;5.624;2024-02-21T09:45:19;101572.03;;;7.98;100.00
59043;BME280;44826;51.596;5.624;2024-02-21T09:50:29;101553.94;;;7.94;100.00
59043;BME280;44826;51.596;5.624;2024-02-21T09:52:58;101551.31;;;7.92;100.00
59043;BME280;44826;51.596;5.624;2024-02-21T09:55:27;101547.03;;;7.93;100.00
59043;BME280;44826;51.596;5.624;2024-02-21T09:57:56;101541.84;;;7.89;100.00
59043;BME280;44826;51.596;5.624;2024-02-21T10:00:22;101538.38;;;7.90;100.00
59043;BME280;44826;51.596;5.624;2024-02-21T10:02:48;101526.28;;;7.91;100.00
59043;BME280;44826;51.596;5.624;2024-02-21T10:05:15;101515.94;;;7.93;100.00
59043;BME280;44826;51.596;5.624;2024-02-21T10:07:40;101521.97;;;7.93;100.00
59043;BME280;44826;51.596;5.624;2024-02-21T10:10:06;101510.72;;;7.96;100.00
59043;BME280;44826;51.596;5.624;2024-02-21T10:12:32;101506.41;;;7.96;100.00
59043;BME280;44826;51.596;5.624;2024-02-21T10:15:05;101487.41;;;8.00;100.00
59043;BME280;44826;51.596;5.624;2024-02-21T10:17:32;101489.97;;;8.05;100.00
59043;BME280;44826;51.596;5.624;2024-02-21T10:20:09;101477.84;;;8.09;100.00
59043;BME280;44826;51.596;5.624;2024-02-21T10:22:35;101470.03;;;8.15;100.00
59043;BME280;44826;51.596;5.624;2024-02-21T10:25:12;101462.25;;;8.18;100.00
59043;BME280;44826;51.596;5.624;2024-02-21T10:27:38;101460.50;;;8.20;100.00
59043;BME280;44826;51.596;5.624;2024-02-21T10:30:06;101455.31;;;8.25;100.00
59043;BME280;44826;51.596;5.624;2024-02-21T10:32:32;101444.91;;;8.28;100.00
59043;BME280;44826;51.596;5.624;2024-02-21T10:35:02;101433.66;;;8.30;100.00
59043;BME280;44826;51.596;5.624;2024-02-21T10:37:29;101430.19;;;8.31;100.00
59043;BME280;44826;51.596;5.624;2024-02-21T10:39:55;101426.75;;;8.32;100.00
59043;BME280;44826;51.596;5.624;2024-02-21T10:42:22;101419.81;;;8.34;100.00
59043;BME280;44826;51.596;5.624;2024-02-21T10:44:50;101405.09;;;8.35;100.00
59043;BME280;44826;51.596;5.624;2024-02-21T10:47:16;101391.22;;;8.41;100.00
59043;BME280;44826;51.596;5.624;2024-02-21T10:49:50;101392.06;;;8.43;100.00
59043;BME280;44826;51.596;5.624;2024-02-21T10:53:00;101371.31;;;8.49;100.00
59043;BME280;44826;51.596;5.624;2024-02-21T10:55:33;101344.53;;;8.50;100.00
59043;BME280;44826;51.596;5.624;2024-02-21T10:58:00;101331.47;;;8.58;100.00
59043;BME280;44826;51.596;5.624;2024-02-21T11:00:27;101333.19;;;8.62;99.38
59043;BME280;44826;51.596;5.624;2024-02-21T11:02:56;101339.19;;;8.65;99.53
59043;BME280;44826;51.596;5.624;2024-02-21T11:05:23;101348.66;;;8.70;99.17
59043;BME280;44826;51.596;5.624;2024-02-21T11:07:49;101349.47;;;8.75;99.27
59043;BME280;44826;51.596;5.624;2024-02-21T11:10:25;101357.19;;;8.81;98.46
59043;BME280;44826;51.596;5.624;2024-02-21T11:13:07;101362.34;;;8.84;98.56
59043;BME280;44826;51.596;5.624;2024-02-21T11:15:33;101363.19;;;8.88;98.78
59043;BME280;44826;51.596;5.624;2024-02-21T11:17:58;101371.88;;;8.82;97.63
59043;BME280;44826;51.596;5.624;2024-02-21T11:20:37;101359.78;;;8.81;98.21
59043;BME280;44826;51.596;5.624;2024-02-21T11:23:02;101350.25;;;8.81;96.99
59043;BME280;44826;51.596;5.624;2024-02-21T11:25:28;101340.75;;;8.80;97.12
59043;BME280;44826;51.596;5.624;2024-02-21T11:28:00;101336.38;;;8.86;96.55
59043;BME280;44826;51.596;5.624;2024-02-21T11:30:31;101327.72;;;8.87;96.67
59043;BME280;44826;51.596;5.624;2024-02-21T11:33:03;101316.50;;;8.86;96.46
59043;BME280;44826;51.596;5.624;2024-02-21T11:35:35;101320.75;;;8.90;96.28
59043;BME280;44826;51.596;5.624;2024-02-21T11:38:10;101315.56;;;8.90;96.66
59043;BME280;44826;51.596;5.624;2024-02-21T11:40:38;101305.19;;;8.92;96.09
59043;BME280;44826;51.596;5.624;2024-02-21T11:43:05;101292.19;;;8.93;96.09
59043;BME280;44826;51.596;5.624;2024-02-21T11:45:30;101290.41;;;8.97;96.09
59043;BME280;44826;51.596;5.624;2024-02-21T11:47:57;101283.38;;;9.07;95.60
59043;BME280;44826;51.596;5.624;2024-02-21T11:50:25;101284.13;;;9.18;96.82
59043;BME280;44826;51.596;5.624;2024-02-21T11:52:51;101277.03;;;9.30;94.88
59043;BME280;44826;51.596;5.624;2024-02-21T11:55:16;101276.13;;;9.34;94.56
59043;BME280;44826;51.596;5.624;2024-02-21T11:57:41;101276.13;;;9.34;93.98
59043;BME280;44826;51.596;5.624;2024-02-21T12:00:17;101271.78;;;9.34;93.78
59043;BME280;44826;51.596;5.624;2024-02-21T12:02:43;101261.47;;;9.30;93.16
59043;BME280;44826;51.596;5.624;2024-02-21T12:05:09;101238.94;;;9.32;93.30
59043;BME280;44826;51.596;5.624;2024-02-21T12:07:36;101225.00;;;9.37;93.71
59043;BME280;44826;51.596;5.624;2024-02-21T12:10:07;101210.16;;;9.46;93.03
59043;BME280;44826;51.596;5.624;2024-02-21T12:12:35;101189.31;;;9.50;93.42
59043;BME280;44826;51.596;5.624;2024-02-21T12:15:01;101196.94;;;9.60;92.44
59043;BME280;44826;51.596;5.624;2024-02-21T12:17:29;101198.59;;;9.67;91.68
59043;BME280;44826;51.596;5.624;2024-02-21T12:19:54;101176.88;;;9.71;91.87
59043;BME280;44826;51.596;5.624;2024-02-21T12:22:20;101184.53;;;9.79;91.32
59043;BME280;44826;51.596;5.624;2024-02-21T12:24:45;101189.69;;;9.80;91.01
59043;BME280;44826;51.596;5.624;2024-02-21T12:27:13;101174.06;;;9.83;90.32
59043;BME280;44826;51.596;5.624;2024-02-21T12:29:38;101166.22;;;9.86;90.17
59043;BME280;44826;51.596;5.624;2024-02-21T12:32:04;101159.16;;;9.92;90.85
59043;BME280;44826;51.596;5.624;2024-02-21T12:34:29;101146.06;;;9.98;89.76
59043;BME280;44826;51.596;5.624;2024-02-21T12:36:58;101136.47;;;10.01;90.12
59043;BME280;44826;51.596;5.624;2024-02-21T12:39:23;101128.59;;;10.06;89.93
59043;BME280;44826;51.596;5.624;2024-02-21T12:41:49;101116.41;;;10.08;89.96
59043;BME280;44826;51.596;5.624;2024-02-21T12:44:14;101103.50;;;10.05;89.16
59043;BME280;44826;51.596;5.624;2024-02-21T12:46:41;101104.34;;;10.06;88.41
59043;BME280;44826;51.596;5.624;2024-02-21T12:49:07;101077.41;;;10.08;89.28